sensor_id;sensor_type;location;lat;lon;timestamp;P1;durP1;ratioP1;P2;durP2;ratioP2
20954;SDS011;10636;19.390;-99.256;2023-06-10T00:00:30;6.57;;;5.10;;
20954;SDS011;10636;19.390;-99.256;2023-06-10T00:02:59;6.43;;;5.75;;
20954;SDS011;10636;19.390;-99.256;2023-06-10T00:05:28;9.23;;;5.60;;
20954;SDS011;10636;19.390;-99.256;2023-06-10T00:07:58;8.75;;;5.30;;
20954;SDS011;10636;19.390;-99.256;2023-06-10T00:10:45;10.48;;;5.78;;
20954;SDS011;10636;19.390;-99.256;2023-06-10T00:13:19;7.47;;;5.53;;
20954;SDS011;10636;19.390;-99.256;2023-06-10T00:15:47;8.25;;;5.45;;
20954;SDS011;10636;19.390;-99.256;2023-06-10T00:18:16;7.43;;;5.55;;
20954;SDS011;10636;19.390;-99.256;2023-06-10T00:20:53;7.35;;;5.35;;
20954;SDS011;10636;19.390;-99.256;2023-06-10T00:23:24;8.45;;;5.35;;
20954;SDS011;10636;19.390;-99.256;2023-06-10T00:25:54;5.65;;;5.13;;
20954;SDS011;10636;19.390;-99.256;2023-06-10T00:28:23;6.25;;;5.45;;
20954;SDS011;10636;19.390;-99.256;2023-06-10T00:30:51;6.78;;;5.40;;
20954;SDS011;10636;19.390;-99.256;2023-06-10T00:33:23;6.75;;;5.30;;
20954;SDS011;10636;19.390;-99.256;2023-06-10T00:35:53;5.82;;;5.15;;
20954;SDS011;10636;19.390;-99.256;2023-06-10T00:38:22;7.53;;;5.97;;
20954;SDS011;10636;19.390;-99.256;2023-06-10T00:40:55;6.40;;;5.80;;
20954;SDS011;10636;19.390;-99.256;2023-06-10T00:43:26;6.38;;;5.78;;
20954;SDS011;10636;19.390;-99.256;2023-06-10T00:45:54;7.13;;;5.90;;
20954;SDS011;10636;19.390;-99.256;2023-06-10T00:48:23;6.90;;;5.95;;
20954;SDS011;10636;19.390;-99.256;2023-06-10T00:50:52;6.90;;;6.07;;
20954;SDS011;10636;19.390;-99.256;2023-06-10T00:53:21;6.22;;;5.53;;
20954;SDS011;10636;19.390;-99.256;2023-06-10T00:55:52;6.97;;;6.20;;
20954;SDS011;10636;19.390;-99.256;2023-06-10T00:58:21;6.57;;;5.70;;
20954;SDS011;10636;19.390;-99.256;2023-06-10T01:00:51;6.35;;;5.72;;
20954;SDS011;10636;19.390;-99.256;2023-06-10T01:03:27;6.43;;;5.68;;
20954;SDS011;10636;19.390;-99.256;2023-06-10T01:05:57;6.40;;;5.72;;
20954;SDS011;10636;19.390;-99.256;2023-06-10T01:08:34;8.18;;;6.43;;
20954;SDS011;10636;19.390;-99.256;2023-06-10T01:11:13;8.50;;;6.45;;
20954;SDS011;10636;19.390;-99.256;2023-06-10T01:13:49;6.70;;;6.10;;
20954;SDS011;10636;19.390;-99.256;2023-06-10T01:16:19;7.10;;;6.22;;
20954;SDS011;10636;19.390;-99.256;2023-06-10T01:18:51;9.23;;;5.88;;
20954;SDS011;10636;19.390;-99.256;2023-06-10T01:21:22;6.80;;;6.10;;
20954;SDS011;10636;19.390;-99.256;2023-06-10T01:23:52;6.90;;;6.22;;
20954;SDS011;10636;19.390;-99.256;2023-06-10T01:26:28;6.72;;;6.13;;
20954;SDS011;10636;19.390;-99.256;2023-06-10T01:28:59;6.65;;;6.05;;
20954;SDS011;10636;19.390;-99.256;2023-06-10T01:31:38;6.93;;;6.32;;
20954;SDS011;10636;19.390;-99.256;2023-06-10T01:34:12;7.30;;;6.60;;
20954;SDS011;10636;19.390;-99.256;2023-06-10T01:36:46;7.80;;;7.10;;
20954;SDS011;10636;19.390;-99.256;2023-06-10T01:39:24;7.60;;;6.88;;
20954;SDS011;10636;19.390;-99.256;2023-06-10T01:41:52;7.35;;;6.65;;
20954;SDS011;10636;19.390;-99.256;2023-06-10T01:44:22;7.32;;;6.50;;
20954;SDS011;10636;19.390;-99.256;2023-06-10T01:47:00;8.05;;;6.80;;
20954;SDS011;10636;19.390;-99.256;2023-06-10T01:49:28;7.47;;;6.78;;
20954;SDS011;10636;19.390;-99.256;2023-06-10T01:51:59;7.85;;;7.07;;
20954;SDS011;10636;19.390;-99.256;2023-06-10T01:54:30;8.20;;;7.40;;
20954;SDS011;10636;19.390;-99.256;2023-06-10T01:57:00;8.88;;;7.97;;
20954;SDS011;10636;19.390;-99.256;2023-06-10T01:59:29;8.23;;;7.43;;
20954;SDS011;10636;19.390;-99.256;2023-06-10T02:01:57;8.68;;;7.78;;
20954;SDS011;10636;19.390;-99.256;2023-06-10T02:04:59;9.68;;;8.50;;
20954;SDS011;10636;19.390;-99.256;2023-06-10T02:07:17;9.50;;;8.60;;
20954;SDS011;10636;19.390;-99.256;2023-06-10T02:09:47;9.35;;;8.35;;
20954;SDS011;10636;19.390;-99.256;2023-06-10T02:12:16;9.60;;;8.57;;
20954;SDS011;10636;19.390;-99.256;2023-06-10T02:14:46;10.10;;;8.48;;
20954;SDS011;10636;19.390;-99.256;2023-06-10T02:17:16;8.77;;;7.93;;
20954;SDS011;10636;19.390;-99.256;2023-06-10T02:19:45;9.32;;;8.43;;
20954;SDS011;10636;19.390;-99.256;2023-06-10T02:22:20;11.07;;;9.38;;
20954;SDS011;10636;19.390;-99.256;2023-06-10T02:24:49;11.65;;;9.30;;
20954;SDS011;10636;19.390;-99.256;2023-06-10T02:27:18;9.77;;;8.85;;
20954;SDS011;10636;19.390;-99.256;2023-06-10T02:29:46;10.20;;;9.10;;
20954;SDS011;10636;19.390;-99.256;2023-06-10T02:32:15;11.02;;;9.93;;
20954;SDS011;10636;19.390;-99.256;2023-06-10T02:34:43;11.70;;;9.30;;
20954;SDS011;10636;19.390;-99.256;2023-06-10T02:37:12;10.45;;;9.45;;
20954;SDS011;10636;19.390;-99.256;2023-06-10T02:39:42;10.70;;;9.10;;
20954;SDS011;10636;19.390;-99.256;2023-06-10T02:42:11;9.95;;;9.00;;
20954;SDS011;10636;19.390;-99.256;2023-06-10T02:44:39;10.27;;;9.15;;
20954;SDS011;10636;19.390;-99.256;2023-06-10T02:47:08;10.18;;;8.32;;
20954;SDS011;10636;19.390;-99.256;2023-06-10T02:49:36;9.43;;;8.45;;
20954;SDS011;10636;19.390;-99.256;2023-06-10T02:52:05;9.43;;;8.35;;
20954;SDS011;10636;19.390;-99.256;2023-06-10T02:54:34;9.20;;;7.90;;
20954;SDS011;10636;19.390;-99.256;2023-06-10T02:57:05;8.70;;;7.85;;
20954;SDS011;10636;19.390;-99.256;2023-06-10T02:59:33;8.70;;;7.75;;
20954;SDS011;10636;19.390;-99.256;2023-06-10T03:02:02;8.98;;;8.02;;
20954;SDS011;10636;19.390;-99.256;2023-06-10T03:04:31;8.80;;;7.90;;
20954;SDS011;10636;19.390;-99.256;2023-06-10T03:07:00;9.82;;;8.88;;
20954;SDS011;10636;19.390;-99.256;2023-06-10T03:09:29;11.43;;;9.18;;
20954;SDS011;10636;19.390;-99.256;2023-06-10T03:11:57;10.23;;;9.23;;
20954;SDS011;10636;19.390;-99.256;2023-06-10T03:14:28;10.60;;;9.18;;
20954;SDS011;10636;19.390;-99.256;2023-06-10T03:16:56;9.95;;;8.95;;
20954;SDS011;10636;19.390;-99.256;2023-06-10T03:19:25;10.27;;;8.20;;
20954;SDS011;10636;19.390;-99.256;2023-06-10T03:21:57;9.77;;;8.38;;
20954;SDS011;10636;19.390;-99.256;2023-06-10T03:24:34;9.68;;;8.70;;
20954;SDS011;10636;19.390;-99.256;2023-06-10T03:27:06;8.80;;;7.88;;
20954;SDS011;10636;19.390;-99.256;2023-06-10T03:29:36;8.95;;;8.07;;
20954;SDS011;10636;19.390;-99.256;2023-06-10T03:32:05;9.65;;;8.65;;
20954;SDS011;10636;19.390;-99.256;2023-06-10T03:34:34;10.50;;;9.40;;
20954;SDS011;10636;19.390;-99.256;2023-06-10T03:37:04;10.27;;;9.07;;
20954;SDS011;10636;19.390;-99.256;2023-06-10T03:39:33;10.40;;;9.30;;
20954;SDS011;10636;19.390;-99.256;2023-06-10T03:42:01;10.25;;;9.35;;
20954;SDS011;10636;19.390;-99.256;2023-06-10T03:44:30;10.45;;;9.35;;
20954;SDS011;10636;19.390;-99.256;2023-06-10T03:47:01;10.00;;;8.75;;
20954;SDS011;10636;19.390;-99.256;2023-06-10T03:49:29;10.82;;;9.73;;
20954;SDS011;10636;19.390;-99.256;2023-06-10T03:51:58;10.18;;;9.23;;
20954;SDS011;10636;19.390;-99.256;2023-06-10T03:54:27;10.40;;;9.50;;
20954;SDS011;10636;19.390;-99.256;2023-06-10T03:56:57;11.70;;;9.50;;
20954;SDS011;10636;19.390;-99.256;2023-06-10T03:59:25;11.65;;;8.60;;
20954;SDS011;10636;19.390;-99.256;2023-06-10T04:01:54;10.38;;;9.48;;
20954;SDS011;10636;19.390;-99.256;2023-06-10T04:04:24;10.55;;;9.55;;
20954;SDS011;10636;19.390;-99.256;2023-06-10T04:06:53;10.85;;;9.60;;
20954;SDS011;10636;19.390;-99.256;2023-06-10T04:09:21;13.63;;;9.70;;
20954;SDS011;10636;19.390;-99.256;2023-06-10T04:11:50;11.05;;;9.77;;
20954;SDS011;10636;19.390;-99.256;2023-06-10T04:14:18;10.30;;;9.30;;
20954;SDS011;10636;19.390;-99.256;2023-06-10T04:16:47;9.80;;;9.00;;
20954;SDS011;10636;19.390;-99.256;2023-06-10T04:19:15;10.60;;;9.60;;
20954;SDS011;10636;19.390;-99.256;2023-06-10T04:21:46;10.93;;;9.90;;
20954;SDS011;10636;19.390;-99.256;2023-06-10T04:24:14;10.35;;;9.35;;
20954;SDS011;10636;19.390;-99.256;2023-06-10T04:26:43;9.85;;;8.90;;
20954;SDS011;10636;19.390;-99.256;2023-06-10T04:29:12;10.30;;;9.40;;
20954;SDS011;10636;19.390;-99.256;2023-06-10T04:31:40;10.52;;;9.13;;
20954;SDS011;10636;19.390;-99.256;2023-06-10T04:34:09;11.30;;;9.73;;
20954;SDS011;10636;19.390;-99.256;2023-06-10T04:36:38;10.27;;;9.27;;
20954;SDS011;10636;19.390;-99.256;2023-06-10T04:39:08;10.10;;;9.20;;
20954;SDS011;10636;19.390;-99.256;2023-06-10T04:41:37;9.85;;;8.95;;
20954;SDS011;10636;19.390;-99.256;2023-06-10T04:44:05;10.23;;;8.73;;
20954;SDS011;10636;19.390;-99.256;2023-06-10T04:46:34;9.02;;;8.15;;
20954;SDS011;10636;19.390;-99.256;2023-06-10T04:49:02;9.82;;;8.82;;
20954;SDS011;10636;19.390;-99.256;2023-06-10T04:51:31;9.70;;;8.82;;
20954;SDS011;10636;19.390;-99.256;2023-06-10T04:53:59;9.90;;;9.00;;
20954;SDS011;10636;19.390;-99.256;2023-06-10T04:56:30;9.45;;;8.55;;
20954;SDS011;10636;19.390;-99.256;2023-06-10T04:58:59;9.68;;;8.70;;
20954;SDS011;10636;19.390;-99.256;2023-06-10T05:01:28;9.70;;;8.75;;
20954;SDS011;10636;19.390;-99.256;2023-06-10T05:03:56;10.05;;;8.75;;
20954;SDS011;10636;19.390;-99.256;2023-06-10T05:06:25;9.15;;;8.45;;
20954;SDS011;10636;19.390;-99.256;2023-06-10T05:08:53;9.73;;;8.82;;
20954;SDS011;10636;19.390;-99.256;2023-06-10T05:11:21;10.30;;;9.40;;
20954;SDS011;10636;19.390;-99.256;2023-06-10T05:13:52;9.73;;;8.82;;
20954;SDS011;10636;19.390;-99.256;2023-06-10T05:16:21;9.90;;;9.10;;
20954;SDS011;10636;19.390;-99.256;2023-06-10T05:18:49;9.07;;;8.27;;
20954;SDS011;10636;19.390;-99.256;2023-06-10T05:21:18;10.20;;;9.25;;
20954;SDS011;10636;19.390;-99.256;2023-06-10T05:23:47;9.82;;;8.93;;
20954;SDS011;10636;19.390;-99.256;2023-06-10T05:26:15;9.98;;;9.05;;
20954;SDS011;10636;19.390;-99.256;2023-06-10T05:28:44;9.88;;;8.88;;
20954;SDS011;10636;19.390;-99.256;2023-06-10T05:31:14;9.95;;;9.00;;
20954;SDS011;10636;19.390;-99.256;2023-06-10T05:33:42;10.35;;;9.35;;
20954;SDS011;10636;19.390;-99.256;2023-06-10T05:36:11;9.85;;;8.85;;
20954;SDS011;10636;19.390;-99.256;2023-06-10T05:38:39;9.43;;;8.55;;
20954;SDS011;10636;19.390;-99.256;2023-06-10T05:41:08;9.48;;;8.55;;
20954;SDS011;10636;19.390;-99.256;2023-06-10T05:43:36;9.52;;;8.52;;
20954;SDS011;10636;19.390;-99.256;2023-06-10T05:46:05;10.02;;;9.13;;
20954;SDS011;10636;19.390;-99.256;2023-06-10T05:48:35;11.15;;;8.90;;
20954;SDS011;10636;19.390;-99.256;2023-06-10T05:51:04;10.60;;;8.48;;
20954;SDS011;10636;19.390;-99.256;2023-06-10T05:53:32;10.27;;;9.20;;
20954;SDS011;10636;19.390;-99.256;2023-06-10T05:56:01;10.20;;;9.30;;
20954;SDS011;10636;19.390;-99.256;2023-06-10T05:58:29;10.60;;;9.50;;
20954;SDS011;10636;19.390;-99.256;2023-06-10T06:00:58;10.75;;;9.70;;
20954;SDS011;10636;19.390;-99.256;2023-06-10T06:03:27;10.60;;;9.60;;
20954;SDS011;10636;19.390;-99.256;2023-06-10T06:05:57;10.38;;;9.40;;
20954;SDS011;10636;19.390;-99.256;2023-06-10T06:08:25;10.00;;;8.98;;
20954;SDS011;10636;19.390;-99.256;2023-06-10T06:10:54;9.77;;;8.68;;
20954;SDS011;10636;19.390;-99.256;2023-06-10T06:13:23;10.57;;;9.52;;
20954;SDS011;10636;19.390;-99.256;2023-06-10T06:15:51;10.50;;;9.40;;
20954;SDS011;10636;19.390;-99.256;2023-06-10T06:18:20;10.77;;;9.35;;
20954;SDS011;10636;19.390;-99.256;2023-06-10T06:20:49;10.82;;;9.82;;
20954;SDS011;10636;19.390;-99.256;2023-06-10T06:23:19;10.88;;;9.77;;
20954;SDS011;10636;19.390;-99.256;2023-06-10T06:25:48;11.75;;;10.05;;
20954;SDS011;10636;19.390;-99.256;2023-06-10T06:28:16;11.25;;;10.23;;
20954;SDS011;10636;19.390;-99.256;2023-06-10T06:30:46;11.05;;;9.95;;
20954;SDS011;10636;19.390;-99.256;2023-06-10T06:33:15;11.23;;;10.13;;
20954;SDS011;10636;19.390;-99.256;2023-06-10T06:35:44;11.38;;;9.98;;
20954;SDS011;10636;19.390;-99.256;2023-06-10T06:38:12;12.15;;;10.93;;
20954;SDS011;10636;19.390;-99.256;2023-06-10T06:40:42;12.30;;;11.10;;
20954;SDS011;10636;19.390;-99.256;2023-06-10T06:43:11;11.65;;;10.55;;
20954;SDS011;10636;19.390;-99.256;2023-06-10T06:45:40;12.02;;;10.43;;
20954;SDS011;10636;19.390;-99.256;2023-06-10T06:48:08;11.43;;;10.32;;
20954;SDS011;10636;19.390;-99.256;2023-06-10T06:50:37;12.57;;;10.82;;
20954;SDS011;10636;19.390;-99.256;2023-06-10T06:53:07;11.70;;;10.50;;
20954;SDS011;10636;19.390;-99.256;2023-06-10T06:55:35;11.45;;;10.18;;
20954;SDS011;10636;19.390;-99.256;2023-06-10T06:58:05;11.80;;;10.60;;
20954;SDS011;10636;19.390;-99.256;2023-06-10T07:00:34;11.68;;;10.57;;
20954;SDS011;10636;19.390;-99.256;2023-06-10T07:03:03;11.98;;;10.55;;
20954;SDS011;10636;19.390;-99.256;2023-06-10T07:05:31;12.80;;;10.98;;
20954;SDS011;10636;19.390;-99.256;2023-06-10T07:08:00;12.25;;;10.95;;
20954;SDS011;10636;19.390;-99.256;2023-06-10T07:10:28;12.27;;;11.10;;
20954;SDS011;10636;19.390;-99.256;2023-06-10T07:12:57;11.95;;;10.77;;
20954;SDS011;10636;19.390;-99.256;2023-06-10T07:15:27;12.57;;;11.13;;
20954;SDS011;10636;19.390;-99.256;2023-06-10T07:17:55;12.23;;;10.98;;
20954;SDS011;10636;19.390;-99.256;2023-06-10T07:20:24;12.40;;;11.18;;
20954;SDS011;10636;19.390;-99.256;2023-06-10T07:22:52;12.88;;;10.85;;
20954;SDS011;10636;19.390;-99.256;2023-06-10T07:25:21;12.43;;;10.90;;
20954;SDS011;10636;19.390;-99.256;2023-06-10T07:27:49;12.32;;;11.13;;
20954;SDS011;10636;19.390;-99.256;2023-06-10T07:30:18;12.80;;;11.50;;
20954;SDS011;10636;19.390;-99.256;2023-06-10T07:32:48;12.85;;;11.60;;
20954;SDS011;10636;19.390;-99.256;2023-06-10T07:35:16;13.20;;;11.90;;
20954;SDS011;10636;19.390;-99.256;2023-06-10T07:37:45;12.38;;;11.18;;
20954;SDS011;10636;19.390;-99.256;2023-06-10T07:40:13;12.43;;;11.10;;
20954;SDS011;10636;19.390;-99.256;2023-06-10T07:42:42;13.13;;;11.73;;
20954;SDS011;10636;19.390;-99.256;2023-06-10T07:45:11;13.23;;;11.82;;
20954;SDS011;10636;19.390;-99.256;2023-06-10T07:47:39;13.23;;;11.88;;
20954;SDS011;10636;19.390;-99.256;2023-06-10T07:50:10;13.80;;;12.13;;
20954;SDS011;10636;19.390;-99.256;2023-06-10T07:52:38;12.35;;;11.13;;
20954;SDS011;10636;19.390;-99.256;2023-06-10T07:55:07;12.00;;;10.38;;
20954;SDS011;10636;19.390;-99.256;2023-06-10T07:57:36;12.05;;;10.68;;
20954;SDS011;10636;19.390;-99.256;2023-06-10T08:00:05;11.90;;;10.70;;
20954;SDS011;10636;19.390;-99.256;2023-06-10T08:02:34;12.13;;;10.93;;
20954;SDS011;10636;19.390;-99.256;2023-06-10T08:05:03;11.98;;;10.80;;
20954;SDS011;10636;19.390;-99.256;2023-06-10T08:07:33;11.30;;;10.20;;
20954;SDS011;10636;19.390;-99.256;2023-06-10T08:10:02;10.73;;;9.65;;
20954;SDS011;10636;19.390;-99.256;2023-06-10T08:12:31;10.65;;;9.65;;
20954;SDS011;10636;19.390;-99.256;2023-06-10T08:15:00;10.68;;;9.63;;
20954;SDS011;10636;19.390;-99.256;2023-06-10T08:17:29;11.00;;;9.68;;
20954;SDS011;10636;19.390;-99.256;2023-06-10T08:19:58;11.23;;;10.10;;
20954;SDS011;10636;19.390;-99.256;2023-06-10T08:22:27;11.68;;;9.48;;
20954;SDS011;10636;19.390;-99.256;2023-06-10T08:24:58;9.77;;;8.98;;
20954;SDS011;10636;19.390;-99.256;2023-06-10T08:27:26;9.73;;;8.73;;
20954;SDS011;10636;19.390;-99.256;2023-06-10T08:29:55;9.77;;;8.73;;
20954;SDS011;10636;19.390;-99.256;2023-06-10T08:32:26;9.52;;;8.63;;
20954;SDS011;10636;19.390;-99.256;2023-06-10T08:34:54;9.93;;;8.93;;
20954;SDS011;10636;19.390;-99.256;2023-06-10T08:37:23;10.00;;;9.00;;
20954;SDS011;10636;19.390;-99.256;2023-06-10T08:39:52;9.98;;;8.98;;
20954;SDS011;10636;19.390;-99.256;2023-06-10T08:42:23;9.32;;;8.43;;
20954;SDS011;10636;19.390;-99.256;2023-06-10T08:44:55;9.82;;;8.93;;
20954;SDS011;10636;19.390;-99.256;2023-06-10T08:47:24;9.85;;;8.82;;
20954;SDS011;10636;19.390;-99.256;2023-06-10T08:49:54;9.82;;;8.57;;
20954;SDS011;10636;19.390;-99.256;2023-06-10T08:52:26;9.23;;;8.30;;
20954;SDS011;10636;19.390;-99.256;2023-06-10T08:55:02;9.05;;;8.25;;
20954;SDS011;10636;19.390;-99.256;2023-06-10T08:57:33;9.02;;;8.13;;
20954;SDS011;10636;19.390;-99.256;2023-06-10T09:00:02;9.02;;;8.13;;
20954;SDS011;10636;19.390;-99.256;2023-06-10T09:02:32;9.20;;;8.40;;
20954;SDS011;10636;19.390;-99.256;2023-06-10T09:05:02;9.68;;;8.77;;
20954;SDS011;10636;19.390;-99.256;2023-06-10T09:07:31;9.05;;;8.20;;
20954;SDS011;10636;19.390;-99.256;2023-06-10T09:10:02;9.10;;;8.25;;
20954;SDS011;10636;19.390;-99.256;2023-06-10T09:12:34;9.30;;;8.48;;
20954;SDS011;10636;19.390;-99.256;2023-06-10T09:15:03;8.75;;;7.90;;
20954;SDS011;10636;19.390;-99.256;2023-06-10T09:17:33;9.05;;;8.02;;
20954;SDS011;10636;19.390;-99.256;2023-06-10T09:20:03;9.50;;;8.50;;
20954;SDS011;10636;19.390;-99.256;2023-06-10T09:22:33;8.88;;;8.07;;
20954;SDS011;10636;19.390;-99.256;2023-06-10T09:25:04;9.02;;;8.13;;
20954;SDS011;10636;19.390;-99.256;2023-06-10T09:27:43;8.63;;;7.82;;
20954;SDS011;10636;19.390;-99.256;2023-06-10T09:30:24;8.80;;;8.00;;
20954;SDS011;10636;19.390;-99.256;2023-06-10T09:32:54;8.85;;;8.05;;
20954;SDS011;10636;19.390;-99.256;2023-06-10T09:35:23;9.40;;;8.50;;
20954;SDS011;10636;19.390;-99.256;2023-06-10T09:37:52;8.90;;;7.88;;
20954;SDS011;10636;19.390;-99.256;2023-06-10T09:40:21;9.25;;;7.80;;
20954;SDS011;10636;19.390;-99.256;2023-06-10T09:42:54;8.93;;;8.05;;
20954;SDS011;10636;19.390;-99.256;2023-06-10T09:45:27;8.20;;;7.40;;
20954;SDS011;10636;19.390;-99.256;2023-06-10T09:47:58;8.88;;;7.97;;
20954;SDS011;10636;19.390;-99.256;2023-06-10T09:50:27;9.65;;;8.15;;
20954;SDS011;10636;19.390;-99.256;2023-06-10T09:53:00;8.57;;;7.75;;
20954;SDS011;10636;19.390;-99.256;2023-06-10T09:55:29;8.35;;;7.55;;
20954;SDS011;10636;19.390;-99.256;2023-06-10T09:58:02;8.88;;;7.97;;
20954;SDS011;10636;19.390;-99.256;2023-06-10T10:00:31;8.77;;;7.88;;
20954;SDS011;10636;19.390;-99.256;2023-06-10T10:03:00;8.35;;;7.55;;
20954;SDS011;10636;19.390;-99.256;2023-06-10T10:05:29;8.75;;;7.95;;
20954;SDS011;10636;19.390;-99.256;2023-06-10T10:07:58;8.23;;;7.50;;
20954;SDS011;10636;19.390;-99.256;2023-06-10T10:10:26;8.48;;;7.78;;
20954;SDS011;10636;19.390;-99.256;2023-06-10T10:12:55;8.77;;;7.97;;
20954;SDS011;10636;19.390;-99.256;2023-06-10T10:15:28;8.07;;;7.38;;
20954;SDS011;10636;19.390;-99.256;2023-06-10T10:18:02;8.82;;;7.93;;
20954;SDS011;10636;19.390;-99.256;2023-06-10T10:20:34;8.25;;;7.50;;
20954;SDS011;10636;19.390;-99.256;2023-06-10T10:23:06;7.90;;;7.10;;
20954;SDS011;10636;19.390;-99.256;2023-06-10T10:25:40;8.00;;;7.25;;
20954;SDS011;10636;19.390;-99.256;2023-06-10T10:28:10;8.60;;;7.80;;
20954;SDS011;10636;19.390;-99.256;2023-06-10T10:30:42;8.52;;;7.80;;
20954;SDS011;10636;19.390;-99.256;2023-06-10T10:33:16;9.38;;;7.93;;
20954;SDS011;10636;19.390;-99.256;2023-06-10T10:35:48;8.60;;;7.80;;
20954;SDS011;10636;19.390;-99.256;2023-06-10T10:38:17;8.80;;;7.90;;
20954;SDS011;10636;19.390;-99.256;2023-06-10T10:40:46;8.85;;;7.78;;
20954;SDS011;10636;19.390;-99.256;2023-06-10T10:43:15;8.35;;;7.55;;
20954;SDS011;10636;19.390;-99.256;2023-06-10T10:45:46;8.55;;;7.63;;
20954;SDS011;10636;19.390;-99.256;2023-06-10T10:48:26;8.90;;;8.00;;
20954;SDS011;10636;19.390;-99.256;2023-06-10T10:51:00;8.95;;;8.15;;
20954;SDS011;10636;19.390;-99.256;2023-06-10T10:53:29;8.10;;;7.30;;
20954;SDS011;10636;19.390;-99.256;2023-06-10T10:55:58;8.70;;;7.80;;
20954;SDS011;10636;19.390;-99.256;2023-06-10T10:58:27;8.45;;;7.57;;
20954;SDS011;10636;19.390;-99.256;2023-06-10T11:00:57;8.57;;;7.68;;
20954;SDS011;10636;19.390;-99.256;2023-06-10T11:03:28;8.63;;;7.82;;
20954;SDS011;10636;19.390;-99.256;2023-06-10T11:05:57;8.60;;;7.80;;
20954;SDS011;10636;19.390;-99.256;2023-06-10T11:11:20;9.45;;;8.57;;
20954;SDS011;10636;19.390;-99.256;2023-06-10T11:14:07;9.80;;;8.80;;
20954;SDS011;10636;19.390;-99.256;2023-06-10T11:16:41;10.25;;;9.20;;
20954;SDS011;10636;19.390;-99.256;2023-06-10T11:19:11;10.82;;;9.75;;
20954;SDS011;10636;19.390;-99.256;2023-06-10T11:22:00;11.07;;;9.43;;
20954;SDS011;10636;19.390;-99.256;2023-06-10T11:24:30;10.63;;;9.48;;
20954;SDS011;10636;19.390;-99.256;2023-06-10T11:27:17;11.15;;;9.25;;
20954;SDS011;10636;19.390;-99.256;2023-06-10T11:30:00;10.80;;;9.00;;
20954;SDS011;10636;19.390;-99.256;2023-06-10T11:32:50;9.00;;;8.10;;
20954;SDS011;10636;19.390;-99.256;2023-06-10T11:35:23;8.93;;;7.78;;
20954;SDS011;10636;19.390;-99.256;2023-06-10T11:37:52;8.63;;;7.82;;
20954;SDS011;10636;19.390;-99.256;2023-06-10T11:40:22;9.27;;;8.15;;
20954;SDS011;10636;19.390;-99.256;2023-06-10T11:42:50;9.45;;;8.55;;
20954;SDS011;10636;19.390;-99.256;2023-06-10T11:45:19;9.45;;;8.55;;
20954;SDS011;10636;19.390;-99.256;2023-06-10T11:47:59;9.63;;;8.38;;
20954;SDS011;10636;19.390;-99.256;2023-06-10T11:50:28;9.57;;;8.57;;
20954;SDS011;10636;19.390;-99.256;2023-06-10T11:52:57;10.65;;;8.32;;
20954;SDS011;10636;19.390;-99.256;2023-06-10T11:55:26;8.30;;;7.43;;
20954;SDS011;10636;19.390;-99.256;2023-06-10T11:58:13;8.15;;;7.35;;
20954;SDS011;10636;19.390;-99.256;2023-06-10T12:00:46;8.38;;;6.90;;
20954;SDS011;10636;19.390;-99.256;2023-06-10T12:03:17;8.25;;;7.45;;
20954;SDS011;10636;19.390;-99.256;2023-06-10T12:05:55;8.00;;;7.20;;
20954;SDS011;10636;19.390;-99.256;2023-06-10T12:08:24;7.95;;;7.15;;
20954;SDS011;10636;19.390;-99.256;2023-06-10T12:10:53;7.68;;;6.97;;
20954;SDS011;10636;19.390;-99.256;2023-06-10T12:13:22;7.80;;;6.95;;
20954;SDS011;10636;19.390;-99.256;2023-06-10T12:15:54;7.93;;;6.50;;
20954;SDS011;10636;19.390;-99.256;2023-06-10T12:18:34;7.57;;;6.88;;
20954;SDS011;10636;19.390;-99.256;2023-06-10T12:21:03;8.50;;;6.97;;
20954;SDS011;10636;19.390;-99.256;2023-06-10T12:26:34;9.60;;;7.80;;
20954;SDS011;10636;19.390;-99.256;2023-06-10T12:29:17;8.10;;;7.30;;
20954;SDS011;10636;19.390;-99.256;2023-06-10T12:34:40;9.77;;;7.80;;
20954;SDS011;10636;19.390;-99.256;2023-06-10T12:37:10;11.00;;;7.28;;
20954;SDS011;10636;19.390;-99.256;2023-06-10T12:39:40;8.45;;;7.60;;
20954;SDS011;10636;19.390;-99.256;2023-06-10T12:42:09;10.02;;;8.13;;
20954;SDS011;10636;19.390;-99.256;2023-06-10T12:44:39;9.70;;;8.70;;
20954;SDS011;10636;19.390;-99.256;2023-06-10T12:47:08;11.90;;;9.48;;
20954;SDS011;10636;19.390;-99.256;2023-06-10T12:49:37;12.00;;;9.93;;
20954;SDS011;10636;19.390;-99.256;2023-06-10T12:52:08;11.20;;;10.13;;
20954;SDS011;10636;19.390;-99.256;2023-06-10T12:54:36;12.73;;;10.90;;
20954;SDS011;10636;19.390;-99.256;2023-06-10T12:57:05;12.35;;;10.05;;
20954;SDS011;10636;19.390;-99.256;2023-06-10T12:59:33;11.32;;;10.18;;
20954;SDS011;10636;19.390;-99.256;2023-06-10T13:02:02;12.88;;;11.50;;
20954;SDS011;10636;19.390;-99.256;2023-06-10T13:04:31;12.60;;;10.82;;
20954;SDS011;10636;19.390;-99.256;2023-06-10T13:07:01;14.80;;;11.63;;
20954;SDS011;10636;19.390;-99.256;2023-06-10T13:09:30;14.40;;;12.50;;
20954;SDS011;10636;19.390;-99.256;2023-06-10T13:11:58;16.80;;;12.75;;
20954;SDS011;10636;19.390;-99.256;2023-06-10T13:14:27;15.68;;;14.18;;
20954;SDS011;10636;19.390;-99.256;2023-06-10T13:16:56;16.08;;;14.45;;
20954;SDS011;10636;19.390;-99.256;2023-06-10T13:19:24;15.90;;;14.23;;
20954;SDS011;10636;19.390;-99.256;2023-06-10T13:21:53;14.98;;;13.57;;
20954;SDS011;10636;19.390;-99.256;2023-06-10T13:24:23;16.63;;;13.05;;
20954;SDS011;10636;19.390;-99.256;2023-06-10T13:26:54;16.45;;;14.73;;
20954;SDS011;10636;19.390;-99.256;2023-06-10T13:29:27;15.55;;;13.25;;
20954;SDS011;10636;19.390;-99.256;2023-06-10T13:31:58;15.15;;;13.70;;
20954;SDS011;10636;19.390;-99.256;2023-06-10T13:34:27;14.98;;;13.35;;
20954;SDS011;10636;19.390;-99.256;2023-06-10T13:36:59;15.93;;;14.23;;
20954;SDS011;10636;19.390;-99.256;2023-06-10T13:39:32;15.68;;;14.07;;
20954;SDS011;10636;19.390;-99.256;2023-06-10T13:42:01;17.33;;;14.52;;
20954;SDS011;10636;19.390;-99.256;2023-06-10T13:44:29;16.02;;;14.30;;
20954;SDS011;10636;19.390;-99.256;2023-06-10T13:46:59;15.02;;;13.50;;
20954;SDS011;10636;19.390;-99.256;2023-06-10T13:49:27;15.20;;;13.50;;
20954;SDS011;10636;19.390;-99.256;2023-06-10T13:51:56;15.27;;;13.57;;
20954;SDS011;10636;19.390;-99.256;2023-06-10T13:54:24;16.50;;;14.70;;
20954;SDS011;10636;19.390;-99.256;2023-06-10T13:56:55;16.48;;;14.70;;
20954;SDS011;10636;19.390;-99.256;2023-06-10T13:59:26;18.23;;;15.07;;
20954;SDS011;10636;19.390;-99.256;2023-06-10T14:01:54;18.42;;;16.73;;
20954;SDS011;10636;19.390;-99.256;2023-06-10T14:04:23;18.77;;;15.82;;
20954;SDS011;10636;19.390;-99.256;2023-06-10T14:06:52;18.10;;;16.20;;
20954;SDS011;10636;19.390;-99.256;2023-06-10T14:09:20;17.42;;;15.73;;
20954;SDS011;10636;19.390;-99.256;2023-06-10T14:11:52;19.23;;;17.17;;
20954;SDS011;10636;19.390;-99.256;2023-06-10T14:14:22;16.88;;;15.07;;
20954;SDS011;10636;19.390;-99.256;2023-06-10T14:16:50;18.67;;;16.73;;
20954;SDS011;10636;19.390;-99.256;2023-06-10T14:19:19;17.25;;;15.45;;
20954;SDS011;10636;19.390;-99.256;2023-06-10T14:21:47;17.65;;;15.88;;
20954;SDS011;10636;19.390;-99.256;2023-06-10T14:24:16;19.27;;;17.48;;
20954;SDS011;10636;19.390;-99.256;2023-06-10T14:26:45;21.05;;;18.77;;
20954;SDS011;10636;19.390;-99.256;2023-06-10T14:29:13;19.60;;;16.77;;
20954;SDS011;10636;19.390;-99.256;2023-06-10T14:31:44;21.80;;;19.48;;
20954;SDS011;10636;19.390;-99.256;2023-06-10T14:34:13;20.92;;;18.83;;
20954;SDS011;10636;19.390;-99.256;2023-06-10T14:36:41;20.17;;;18.17;;
20954;SDS011;10636;19.390;-99.256;2023-06-10T14:39:10;18.85;;;16.98;;